Time;durP1;ratioP1;P1;durP2;ratioP2;P2;SDS_P1;SDS_P2;PMS_P1;PMS_P2;Temp;Humidity;BMP_temperature;BMP_pressure;BME280_temperature;BME280_humidity;BME280_pressure;Samples;Min_cycle;Max_cycle;Signal;HPM_P1;HPM_P2
2021/05/11 00:01:06;;;;;;;4.78;3.55;;;;;;;11.82;89.63;98728.41;4998257;28;20488;-66
2021/05/11 00:03:32;;;;;;;5.13;3.50;;;;;;;11.82;89.80;98726.53;4998652;28;20408;-66
2021/05/11 00:05:57;;;;;;;5.15;3.35;;;;;;;11.85;89.72;98730.56;5015832;28;20080;-66
2021/05/11 00:08:23;;;;;;;4.72;3.70;;;;;;;11.91;89.06;98728.78;5016197;28;20046;-66
2021/05/11 00:10:48;;;;;;;4.07;3.30;;;;;;;11.91;89.25;98734.13;5016199;28;20046;-66
2021/05/11 00:13:14;;;;;;;5.18;3.45;;;;;;;11.86;89.54;98737.56;5016221;28;20025;-66
2021/05/11 00:15:39;;;;;;;6.75;3.70;;;;;;;11.79;90.06;98735.13;5015760;28;20053;-66
2021/05/11 00:18:05;;;;;;;5.78;3.80;;;;;;;11.77;90.03;98723.84;5016046;28;20026;-66
2021/05/11 00:20:30;;;;;;;5.22;3.78;;;;;;;11.71;90.28;98724.09;5015471;28;20059;-66
2021/05/11 00:22:55;;;;;;;7.47;3.75;;;;;;;11.79;90.26;98729.75;5016217;28;20432;-66
2021/05/11 00:25:21;;;;;;;4.60;3.55;;;;;;;11.71;90.49;98735.63;5015744;28;20380;-65
2021/05/11 00:27:46;;;;;;;5.82;4.13;;;;;;;11.73;90.21;98740.72;5015927;28;20041;-66
2021/05/11 00:30:12;;;;;;;5.72;4.30;;;;;;;11.71;90.24;98735.63;5015400;28;20041;-66
2021/05/11 00:32:38;;;;;;;6.47;4.53;;;;;;;11.74;90.22;98721.69;5015789;28;20109;-66
2021/05/11 00:35:03;;;;;;;6.05;4.25;;;;;;;11.76;90.40;98716.84;5015292;28;20034;-65
2021/05/11 00:37:29;;;;;;;5.47;4.85;;;;;;;11.71;90.49;98727.56;5015868;28;20500;-65
2021/05/11 00:39:54;;;;;;;6.63;4.95;;;;;;;11.67;91.00;98723.78;5015721;28;20049;-66
2021/05/11 00:42:19;;;;;;;6.40;4.32;;;;;;;11.67;90.65;98723.78;5015168;28;20049;-65
2021/05/11 00:44:45;;;;;;;6.35;4.75;;;;;;;11.68;90.96;98701.22;5015486;28;20030;-65
2021/05/11 00:47:10;;;;;;;6.88;4.50;;;;;;;11.62;91.05;98699.63;5014995;28;20072;-66
2021/05/11 00:49:36;;;;;;;7.90;4.60;;;;;;;11.61;91.49;98708.75;4997809;28;20335;-65
2021/05/11 00:52:03;;;;;;;7.15;4.45;;;;;;;11.61;91.49;98717.59;5015067;28;20485;-66
2021/05/11 00:54:28;;;;;;;5.43;4.82;;;;;;;11.58;91.36;98720.81;5015513;28;20075;-65
2021/05/11 00:56:54;;;;;;;5.75;4.55;;;;;;;11.61;90.95;98724.84;5013956;28;20041;-66
2021/05/11 00:59:26;;;;;;;5.78;4.60;;;;;;;11.57;91.24;98729.91;5015287;28;20030;-68
2021/05/11 01:02:03;;;;;;;5.38;4.50;;;;;;;11.63;90.77;98738.78;5029214;28;20037;-66
2021/05/11 01:04:28;;;;;;;7.05;4.45;;;;;;;11.63;90.93;98738.78;4997485;28;20080;-66
2021/05/11 01:06:54;;;;;;;5.45;4.32;;;;;;;11.62;91.08;98742.56;5014099;28;21905;-66
2021/05/11 01:09:21;;;;;;;6.65;5.10;;;;;;;11.59;91.06;98732.34;5013694;28;20049;-66
2021/05/11 01:11:46;;;;;;;8.20;4.90;;;;;;;11.61;90.95;98730.22;5029778;28;20038;-66
2021/05/11 01:14:12;;;;;;;5.47;4.78;;;;;;;11.59;91.07;98732.34;5014819;28;20500;-66
2021/05/11 01:16:38;;;;;;;5.95;4.88;;;;;;;11.63;90.83;98734.25;5014370;28;20037;-66
2021/05/11 01:19:26;;;;;;;6.47;4.90;;;;;;;11.66;90.88;98723.00;5014773;28;20373;-66
2021/05/11 01:24:34;;;;;;;7.00;5.00;;;;;;;11.58;91.42;98718.13;5013819;28;20037;-65
2021/05/11 01:30:39;;;;;;;9.25;5.50;;;;;;;11.57;91.86;98702.28;5014472;28;20037;-68
2021/05/11 01:49:16;;;;;;;9.95;4.63;;;;;;;11.50;91.37;98680.22;5014266;28;20057;-66
2021/05/11 01:51:27;;;;;;;5.78;4.55;;;;;;;11.55;91.03;98688.31;5005547;28;20062;-66
2021/05/11 02:09:51;;;;;;;5.68;4.38;;;;;;;11.58;90.71;98685.09;5014046;28;20036;-66
2021/05/11 02:23:28;;;;;;;7.57;6.00;;;;;;;11.41;91.28;98694.16;5013859;28;20048;-66
2021/05/11 02:25:53;;;;;;;8.65;6.68;;;;;;;11.41;91.10;98688.00;5013411;28;20034;-66
2021/05/11 02:28:19;;;;;;;7.82;6.28;;;;;;;11.43;91.39;98683.97;5013778;28;20037;-66
2021/05/11 02:30:44;;;;;;;7.35;6.43;;;;;;;11.44;91.43;98676.72;5013317;28;20433;-66
2021/05/11 02:33:10;;;;;;;7.75;6.35;;;;;;;11.41;91.18;98678.06;5013594;28;20469;-66
2021/05/11 02:35:35;;;;;;;8.85;7.20;;;;;;;11.38;91.48;98673.22;5013146;28;20030;-66
2021/05/11 02:38:01;;;;;;;9.10;7.00;;;;;;;11.39;91.41;98669.44;5013482;28;20037;-67
2021/05/11 02:40:26;;;;;;;8.73;6.32;;;;;;;11.37;91.46;98666.22;5011730;28;20034;-66
2021/05/11 02:42:57;;;;;;;8.65;6.95;;;;;;;11.39;91.20;98663.28;5013516;28;20033;-66
2021/05/11 02:45:23;;;;;;;7.47;6.07;;;;;;;11.31;91.63;98656.53;5012953;28;20045;-66
2021/05/11 02:47:49;;;;;;;8.02;6.53;;;;;;;11.36;91.50;98653.88;5013121;28;20034;-66
2021/05/11 02:50:19;;;;;;;7.13;5.88;;;;;;;11.35;91.47;98659.50;4995246;28;20068;-66
2021/05/11 02:52:44;;;;;;;8.25;5.95;;;;;;;11.27;91.30;98655.44;5013205;28;20056;-66
2021/05/11 02:55:10;;;;;;;8.38;6.43;;;;;;;11.23;91.34;98654.34;5012725;28;20392;-66
2021/05/11 02:57:35;;;;;;;7.50;6.57;;;;;;;11.19;91.13;98653.25;5013339;28;20034;-66
2021/05/11 03:00:01;;;;;;;8.82;6.88;;;;;;;11.16;91.49;98654.59;4995409;28;20024;-65
2021/05/11 03:02:28;;;;;;;7.28;6.20;;;;;;;11.20;91.36;98652.19;5013170;28;20140;-66
2021/05/11 03:04:54;;;;;;;8.20;6.25;;;;;;;11.21;91.37;98643.09;5013005;28;20029;-66
2021/05/11 03:07:20;;;;;;;6.90;5.28;;;;;;;11.21;90.72;98651.13;4994475;28;20064;-66
2021/05/11 03:09:45;;;;;;;5.60;4.85;;;;;;;11.17;90.36;98666.13;5012930;28;20042;-67
2021/05/11 03:12:10;;;;;;;6.13;4.88;;;;;;;11.13;89.98;98660.47;5012769;28;20400;-66
2021/05/11 03:14:36;;;;;;;5.75;4.22;;;;;;;11.13;89.46;98656.97;5013106;28;20465;-66
2021/05/11 03:17:01;;;;;;;5.55;4.03;;;;;;;11.12;88.89;98650.00;5012528;28;20042;-67
2021/05/11 03:19:27;;;;;;;5.65;4.28;;;;;;;11.05;89.53;98642.19;5014495;28;20026;-66
2021/05/11 03:21:52;;;;;;;6.65;4.53;;;;;;;11.09;89.50;98654.00;5019090;28;20451;-67
2021/05/11 03:24:18;;;;;;;6.28;4.75;;;;;;;11.08;90.25;98646.22;5019676;28;20526;-67
2021/05/11 03:26:43;;;;;;;6.75;5.10;;;;;;;11.09;90.50;98655.88;5018832;28;20516;-67
2021/05/11 03:29:08;;;;;;;7.80;5.07;;;;;;;11.06;91.06;98670.63;5019392;28;20037;-66
2021/05/11 03:31:34;;;;;;;7.82;4.88;;;;;;;11.11;90.83;98661.81;5018874;28;20038;-67
2021/05/11 03:33:59;;;;;;;9.60;5.60;;;;;;;11.00;90.84;98661.72;5019388;28;20029;-67
2021/05/11 03:36:25;;;;;;;7.00;5.38;;;;;;;11.07;90.72;98666.06;5018738;28;20042;-68
2021/05/11 03:38:52;;;;;;;6.75;5.03;;;;;;;11.08;90.67;98668.47;5001650;28;20112;-67
2021/05/11 03:41:20;;;;;;;6.72;5.78;;;;;;;11.08;90.60;98656.94;5019105;28;20030;-67
2021/05/11 03:43:53;;;;;;;8.52;6.15;;;;;;;11.09;90.54;98647.84;5001988;28;20056;-67
2021/05/11 03:46:19;;;;;;;8.05;5.78;;;;;;;11.01;91.11;98658.00;5018864;28;20061;-69
2021/05/11 03:48:44;;;;;;;8.40;5.70;;;;;;;10.99;91.69;98660.13;5019187;28;20427;-67
2021/05/11 03:51:10;;;;;;;8.85;5.80;;;;;;;11.00;91.36;98661.72;5018795;28;20040;-66
2021/05/11 03:53:35;;;;;;;7.55;5.47;;;;;;;11.01;91.10;98660.66;5019414;28;20029;-67
2021/05/11 03:56:01;;;;;;;8.43;5.60;;;;;;;11.03;90.78;98663.06;5001300;28;20129;-66
2021/05/11 03:58:27;;;;;;;5.93;4.90;;;;;;;11.01;90.39;98670.59;5019339;28;20388;-67
2021/05/11 04:00:52;;;;;;;7.68;5.53;;;;;;;10.99;90.42;98668.16;5018768;28;20048;-68
2021/05/11 04:03:19;;;;;;;6.65;4.70;;;;;;;11.04;90.12;98656.66;5019037;28;20029;-66
2021/05/11 04:05:45;;;;;;;5.95;3.90;;;;;;;11.02;89.20;98664.16;5018806;28;20580;-67
2021/05/11 04:08:40;;;;;;;5.88;4.20;;;;;;;11.06;88.77;98653.69;5018702;28;20050;-67
2021/05/11 04:11:58;;;;;;;6.38;4.15;;;;;;;10.98;88.86;98658.50;5018529;28;20034;-67
2021/05/11 04:16:11;;;;;;;7.32;4.25;;;;;;;11.05;88.38;98646.75;5010641;28;20037;-68
2021/05/11 04:16:46;;;;;;;5.72;3.67;;;;;;;11.06;88.55;98642.97;5015509;28;20061;-67
2021/05/11 04:19:12;;;;;;;5.95;3.60;;;;;;;11.06;88.64;98635.75;5019100;28;20046;-67
2021/05/11 04:21:38;;;;;;;5.45;3.92;;;;;;;11.06;88.08;98632.25;5018517;28;20041;-67
2021/05/11 04:24:04;;;;;;;5.03;4.00;;;;;;;11.15;88.46;98633.38;5018943;28;20026;-67
2021/05/11 04:26:32;;;;;;;5.78;3.92;;;;;;;11.17;88.53;98623.19;5018613;28;20036;-67
2021/05/11 04:28:58;;;;;;;6.93;4.15;;;;;;;11.34;88.53;98628.38;5019151;28;20088;-67
2021/05/11 04:31:23;;;;;;;5.22;4.10;;;;;;;11.81;85.97;98614.84;5015947;28;20030;-67
2021/05/11 04:33:48;;;;;;;6.88;3.92;;;;;;;11.93;84.75;98603.91;5015853;28;20021;-67
2021/05/11 04:36:14;;;;;;;5.53;3.60;;;;;;;14.70;73.82;98600.13;5015342;28;20038;-68
2021/05/11 04:38:40;;;;;;;6.13;3.47;;;;;;;16.94;65.00;98588.09;5015768;28;20029;-68
2021/05/11 04:41:06;;;;;;;4.25;2.78;;;;;;;16.86;63.43;98591.50;4997645;28;20030;-68
2021/05/11 04:43:34;;;;;;;4.88;2.78;;;;;;;17.35;61.73;98606.25;5015895;28;20451;-66
2021/05/11 04:48:47;;;;;;;4.07;2.60;;;;;;;15.16;68.04;98605.06;5028459;28;20038;-65
2021/05/11 04:51:13;;;;;;;3.28;2.50;;;;;;;14.08;73.50;98591.72;5014941;28;20084;-66
2021/05/11 04:53:39;;;;;;;4.43;2.78;;;;;;;12.82;78.62;98587.47;5030555;28;20026;-65
2021/05/11 04:56:05;;;;;;;5.45;3.00;;;;;;;12.19;82.45;98591.28;5014861;28;20038;-67
2021/05/11 04:58:31;;;;;;;4.65;3.00;;;;;;;12.32;82.18;98597.19;5030338;28;20026;-66
2021/05/11 05:01:01;;;;;;;5.65;3.38;;;;;;;11.99;82.94;98602.81;5030113;28;20076;-66
2021/05/11 05:03:27;;;;;;;4.97;3.40;;;;;;;11.93;83.56;98597.69;5032890;28;20119;-68
2021/05/11 05:05:53;;;;;;;6.15;3.75;;;;;;;11.72;84.45;98580.72;5034529;28;20045;-68
2021/05/11 05:08:18;;;;;;;4.72;3.85;;;;;;;11.87;84.40;98589.63;5013717;28;20057;-66
2021/05/11 05:10:44;;;;;;;5.47;3.83;;;;;;;11.89;84.37;98607.38;5014728;28;20049;-67
2021/05/11 05:13:16;;;;;;;5.28;3.80;;;;;;;11.73;84.62;98596.59;5013979;28;20050;-67
2021/05/11 05:15:42;;;;;;;5.18;3.90;;;;;;;11.62;85.50;98587.69;5013622;28;20404;-67
2021/05/11 05:18:07;;;;;;;5.43;3.67;;;;;;;11.93;83.69;98584.28;5015077;28;20026;-67
2021/05/11 05:20:33;;;;;;;4.85;3.70;;;;;;;12.65;80.81;98587.75;5014537;28;20037;-67
2021/05/11 05:22:58;;;;;;;5.05;3.83;;;;;;;12.97;79.55;98598.19;5015232;28;20018;-67
2021/05/11 05:25:27;;;;;;;7.25;4.28;;;;;;;12.79;80.41;98604.16;5014360;28;20042;-66
2021/05/11 05:30:21;;;;;;;5.97;3.72;;;;;;;12.11;83.30;98616.00;5014571;28;20207;-67
2021/05/11 05:32:46;;;;;;;6.43;3.80;;;;;;;11.85;84.38;98623.97;5014695;28;20104;-67
2021/05/11 05:35:12;;;;;;;5.70;4.40;;;;;;;12.04;84.65;98631.56;5013086;28;20029;-66
2021/05/11 05:37:38;;;;;;;6.07;3.88;;;;;;;11.80;84.89;98640.06;5014935;28;20037;-67
2021/05/11 05:40:06;;;;;;;5.97;4.20;;;;;;;11.72;86.00;98640.59;5014629;28;20022;-66
2021/05/11 05:42:31;;;;;;;6.45;4.10;;;;;;;11.75;85.88;98648.09;5013112;28;20105;-67
2021/05/11 05:44:57;;;;;;;8.20;4.43;;;;;;;11.59;85.77;98654.50;5013416;28;20088;-67
2021/05/11 05:47:22;;;;;;;5.82;4.15;;;;;;;11.66;85.85;98657.75;5014031;28;20041;-67
2021/05/11 05:49:51;;;;;;;7.40;4.72;;;;;;;11.74;85.72;98643.81;5013287;28;20037;-67
2021/05/11 05:52:21;;;;;;;6.68;4.45;;;;;;;11.97;85.34;98645.25;5014162;28;20064;-67
2021/05/11 05:54:47;;;;;;;6.90;4.63;;;;;;;12.30;84.94;98630.53;5013325;28;20026;-67
2021/05/11 05:57:12;;;;;;;6.43;4.30;;;;;;;12.63;82.56;98631.06;5013918;28;20092;-67
2021/05/11 05:59:42;;;;;;;7.75;4.25;;;;;;;13.01;81.56;98622.66;5029784;28;20084;-67
2021/05/11 06:02:10;;;;;;;5.25;3.58;;;;;;;13.27;79.65;98618.03;5012597;28;20400;-67
2021/05/11 06:04:35;;;;;;;5.45;3.45;;;;;;;13.44;79.33;98626.56;5014282;28;20022;-66
2021/05/11 06:07:01;;;;;;;6.18;3.40;;;;;;;13.92;76.90;98616.09;5012605;28;20041;-66
2021/05/11 06:09:26;;;;;;;5.10;3.70;;;;;;;14.76;75.45;98607.91;5029679;28;20172;-66
2021/05/11 06:14:59;;;;;;;5.13;3.30;;;;;;;16.22;67.17;98615.53;5018135;28;20045;-69
2021/05/11 06:17:25;;;;;;;4.18;3.20;;;;;;;16.24;66.73;98607.16;5017936;28;20048;-66
2021/05/11 06:19:54;;;;;;;4.35;3.50;;;;;;;15.38;69.90;98615.34;5033791;28;20037;-67
2021/05/11 06:22:19;;;;;;;4.90;3.40;;;;;;;14.76;73.33;98613.31;5033408;28;20033;-67
2021/05/11 06:24:45;;;;;;;4.68;3.00;;;;;;;13.86;77.20;98611.03;5033496;28;20028;-65
2021/05/11 06:27:12;;;;;;;5.60;3.30;;;;;;;13.38;79.29;98616.94;5032951;28;20038;-67
2021/05/11 06:29:39;;;;;;;5.95;3.50;;;;;;;13.37;78.03;98608.03;5033455;28;20022;-68
2021/05/11 06:32:08;;;;;;;5.03;3.35;;;;;;;13.58;78.12;98607.94;5015710;28;20038;-67
2021/05/11 06:34:34;;;;;;;4.53;3.20;;;;;;;13.48;77.98;98614.19;5033446;28;20460;-67
2021/05/11 06:36:59;;;;;;;4.97;3.45;;;;;;;13.33;79.46;98619.63;5015247;28;20045;-67
2021/05/11 06:39:25;;;;;;;6.00;3.83;;;;;;;12.24;82.47;98620.84;5015535;28;20032;-67
2021/05/11 06:41:52;;;;;;;5.88;3.55;;;;;;;12.58;82.46;98620.31;5032815;28;20068;-67
2021/05/11 06:54:55;;;;;;;4.97;3.63;;;;;;;12.95;81.41;98598.47;5032559;28;20040;-67
2021/05/11 06:57:21;;;;;;;4.97;4.10;;;;;;;12.57;83.11;98601.75;5014877;28;20041;-67
2021/05/11 06:59:46;;;;;;;5.20;4.43;;;;;;;12.93;80.91;98606.00;5033052;28;20021;-67
2021/05/11 07:02:12;;;;;;;6.35;4.20;;;;;;;13.12;80.11;98611.59;4987684;28;20064;-67
2021/05/11 07:04:38;;;;;;;6.85;4.35;;;;;;;13.08;81.15;98615.91;5013216;28;20034;-67
2021/05/11 07:07:07;;;;;;;5.10;3.92;;;;;;;12.92;80.88;98622.41;5012776;28;20041;-67
2021/05/11 07:14:24;;;;;;;6.85;4.18;;;;;;;12.88;80.94;98608.72;4995773;28;20026;-67
2021/05/11 07:16:49;;;;;;;5.70;4.38;;;;;;;12.90;81.51;98601.19;5012701;28;20045;-67
2021/05/11 07:19:14;;;;;;;5.25;4.20;;;;;;;12.52;81.89;98605.25;5013482;28;20037;-67
2021/05/11 07:21:40;;;;;;;7.38;3.75;;;;;;;12.52;82.67;98606.06;5012966;28;20400;-67
2021/05/11 07:24:06;;;;;;;5.60;4.03;;;;;;;12.39;83.00;98608.50;5013247;28;20026;-67
2021/05/11 07:26:32;;;;;;;6.80;4.30;;;;;;;12.33;82.78;98596.13;5012725;28;20041;-66
2021/05/11 07:31:29;;;;;;;6.90;4.78;;;;;;;12.45;82.82;98589.38;5012700;28;20046;-67
2021/05/11 07:33:56;;;;;;;8.77;4.53;;;;;;;12.37;82.78;98583.75;5012887;28;20026;-66
2021/05/11 07:36:21;;;;;;;6.38;4.70;;;;;;;12.50;82.48;98585.91;5011607;28;20038;-66
2021/05/11 07:38:47;;;;;;;6.53;4.90;;;;;;;12.88;81.31;98583.66;5012859;28;20033;-66
2021/05/11 07:41:14;;;;;;;9.18;5.78;;;;;;;13.05;80.52;98586.84;5012506;28;20041;-66
2021/05/11 07:43:41;;;;;;;8.07;5.88;;;;;;;13.27;81.10;98589.22;5012988;28;20492;-66
2021/05/11 08:15:21;;;;;;;6.75;3.72;;;;;;;14.09;79.14;98558.31;5000996;28;20072;-66
2021/05/11 08:28:26;;;;;;;8.07;4.07;;;;;;;13.97;76.94;98537.13;5016188;28;20045;-66
2021/05/11 08:30:51;;;;;;;6.00;4.18;;;;;;;14.36;75.88;98547.84;5015477;28;20042;-66
2021/05/11 08:33:17;;;;;;;5.93;4.28;;;;;;;14.22;76.13;98549.59;5015948;28;20022;-66
2021/05/11 08:35:43;;;;;;;6.07;4.05;;;;;;;14.10;74.59;98543.75;5015364;28;20034;-66
2021/05/11 08:38:08;;;;;;;7.03;4.50;;;;;;;13.92;76.16;98548.75;5015683;28;20048;-66
2021/05/11 08:40:34;;;;;;;8.10;4.47;;;;;;;13.64;78.03;98534.13;5015329;28;20396;-66
2021/05/11 08:43:05;;;;;;;5.70;4.05;;;;;;;13.73;77.46;98539.75;5015649;28;20036;-66
2021/05/11 08:45:31;;;;;;;8.32;4.80;;;;;;;13.90;76.92;98558.97;5015129;28;20038;-65
2021/05/11 08:47:57;;;;;;;8.27;4.90;;;;;;;13.73;76.76;98572.84;5015706;28;20072;-66
2021/05/11 08:50:32;;;;;;;9.75;4.60;;;;;;;13.56;77.53;98575.91;4997629;28;20053;-66
2021/05/11 09:26:50;;;;;;;7.07;5.63;;;;;;;12.78;82.20;98559.50;5014766;28;20042;-66
2021/05/11 09:29:46;;;;;;;7.05;5.43;;;;;;;12.65;82.58;98558.19;5015136;28;20065;-66
2021/05/11 09:32:25;;;;;;;7.70;5.30;;;;;;;12.88;81.19;98559.47;5014381;28;20034;-67
2021/05/11 09:45:04;;;;;;;6.85;5.93;;;;;;;12.79;82.30;98545.00;5015029;28;20104;-66
2021/05/11 10:46:58;;;;;;;7.97;6.90;;;;;;;12.85;83.98;98560.81;5013177;28;20059;-66
2021/05/11 10:49:28;;;;;;;9.18;7.38;;;;;;;12.71;84.96;98565.19;5013381;28;20479;-66
2021/05/11 10:52:08;;;;;;;8.88;6.93;;;;;;;12.79;84.60;98577.25;4995484;28;20088;-66
2021/05/11 10:54:38;;;;;;;8.65;7.20;;;;;;;12.87;84.70;98584.75;5013723;28;20030;-67
2021/05/11 10:57:31;;;;;;;8.10;6.85;;;;;;;12.89;85.20;98583.41;4995333;28;20504;-67
2021/05/11 11:00:16;;;;;;;9.45;7.15;;;;;;;12.97;84.72;98579.34;4997439;28;20034;-67
2021/05/11 11:02:47;;;;;;;10.60;6.70;;;;;;;13.22;83.64;98585.72;5013223;28;20046;-67
2021/05/11 11:05:33;;;;;;;8.45;6.60;;;;;;;13.23;84.03;98595.41;4996024;28;20029;-67
2021/05/11 11:07:58;;;;;;;8.07;6.65;;;;;;;13.09;84.80;98597.88;4998328;28;20053;-67
2021/05/11 11:10:23;;;;;;;7.35;6.18;;;;;;;13.02;85.76;98608.94;5012828;28;20393;-66
2021/05/11 11:12:49;;;;;;;9.45;6.18;;;;;;;13.23;85.11;98608.84;4979474;28;20022;-66
2021/05/11 11:15:16;;;;;;;8.80;6.03;;;;;;;13.08;84.87;98618.59;5011561;28;20022;-66
2021/05/11 11:17:50;;;;;;;6.53;5.82;;;;;;;12.79;85.38;98621.09;5012982;28;20064;-66
2021/05/11 11:20:17;;;;;;;7.25;5.75;;;;;;;12.61;86.05;98609.00;5011445;28;20080;-66
2021/05/11 11:25:26;;;;;;;7.15;6.00;;;;;;;12.36;86.21;98600.97;5011726;28;20056;-66
2021/05/11 11:27:52;;;;;;;8.43;5.72;;;;;;;12.58;85.31;98598.81;5013117;28;20416;-67
2021/05/11 11:30:18;;;;;;;8.43;6.78;;;;;;;12.48;86.47;98596.09;5012700;28;20377;-66
2021/05/11 11:32:43;;;;;;;9.48;6.57;;;;;;;12.61;86.43;98609.00;5011960;28;20057;-66
2021/05/11 11:35:09;;;;;;;7.55;6.82;;;;;;;12.50;87.06;98607.41;5012530;28;20465;-65
2021/05/11 11:37:35;;;;;;;7.60;6.55;;;;;;;12.57;86.02;98602.56;4995469;28;20436;-67
2021/05/11 11:40:05;;;;;;;8.55;5.88;;;;;;;12.54;86.14;98613.06;5012538;28;20021;-66
2021/05/11 11:42:33;;;;;;;7.05;5.43;;;;;;;12.48;87.05;98604.16;5016705;28;20060;-66
2021/05/11 11:45:03;;;;;;;5.82;5.10;;;;;;;12.56;87.01;98611.72;5016822;28;20038;-67
2021/05/11 11:47:29;;;;;;;6.18;4.90;;;;;;;12.91;85.64;98596.59;5016496;28;20115;-66
2021/05/11 11:49:56;;;;;;;7.00;4.55;;;;;;;12.89;86.37;98582.59;5016767;28;20026;-66
2021/05/11 11:52:30;;;;;;;5.53;4.40;;;;;;;12.99;84.86;98577.19;5016284;28;20034;-66
2021/05/11 12:00:15;;;;;;;4.10;2.80;;;;;;;13.46;81.18;98591.31;5016271;28;20095;-67
2021/05/11 12:03:01;;;;;;;2.33;1.75;;;;;;;13.20;80.65;98574.44;5016585;28;20045;-68
2021/05/11 12:05:29;;;;;;;4.45;2.50;;;;;;;13.20;81.89;98577.13;5016125;28;20120;-67
2021/05/11 12:08:03;;;;;;;1.80;1.60;;;;;;;13.15;80.33;98575.25;5016242;28;20401;-67
2021/05/11 12:10:29;;;;;;;2.38;1.70;;;;;;;13.25;78.23;98575.19;4983314;28;20389;-68
2021/05/11 12:12:55;;;;;;;4.18;1.77;;;;;;;13.41;80.14;98584.06;5016346;28;20018;-68
2021/05/11 12:15:20;;;;;;;5.18;2.10;;;;;;;13.78;79.08;98585.50;4998370;28;20045;-68
2021/05/11 12:18:10;;;;;;;3.58;2.35;;;;;;;14.33;76.78;98594.25;5016257;28;20037;-67
2021/05/11 12:20:35;;;;;;;3.15;2.15;;;;;;;14.54;76.78;98599.50;4998731;28;20042;-68
2021/05/11 12:23:14;;;;;;;3.40;2.10;;;;;;;15.07;76.22;98607.59;5014939;28;20037;-66
2021/05/11 12:26:03;;;;;;;3.00;2.00;;;;;;;15.04;75.82;98608.16;4998184;28;20060;-67
2021/05/11 12:28:39;;;;;;;2.03;1.65;;;;;;;14.80;74.86;98598.16;5015175;28;20045;-68
2021/05/11 12:31:08;;;;;;;2.70;1.90;;;;;;;15.64;74.45;98594.22;5015557;28;20505;-68
2021/05/11 12:33:35;;;;;;;3.25;1.77;;;;;;;15.18;73.95;98598.28;5015991;28;20025;-66
2021/05/11 12:36:05;;;;;;;1.95;1.63;;;;;;;14.82;72.79;98616.75;5015463;28;20092;-67
2021/05/11 12:38:32;;;;;;;2.45;1.80;;;;;;;14.82;75.36;98633.72;4998203;28;20026;-66
2021/05/11 12:41:11;;;;;;;1.70;1.50;;;;;;;15.12;72.88;98631.81;5015533;28;20030;-68
2021/05/11 12:43:43;;;;;;;1.90;1.52;;;;;;;15.13;71.34;98625.34;5015714;28;20056;-65
2021/05/11 12:46:15;;;;;;;1.95;1.52;;;;;;;15.55;72.99;98634.56;5015468;28;20038;-66
2021/05/11 12:48:59;;;;;;;1.88;1.50;;;;;;;15.26;71.35;98637.34;5015532;28;20112;-66
2021/05/11 12:51:37;;;;;;;2.45;1.80;;;;;;;15.31;72.37;98629.19;5015227;28;20040;-65
2021/05/11 12:54:23;;;;;;;2.30;1.58;;;;;;;15.32;72.71;98626.22;5014952;28;20021;-66
2021/05/11 12:56:58;;;;;;;1.75;1.40;;;;;;;14.57;71.84;98631.28;5013560;28;20948;-65
2021/05/11 13:21:18;;;;;;;2.88;1.67;;;;;;;14.98;74.72;98598.53;4975833;28;20065;-67
2021/05/11 13:26:32;;;;;;;4.22;1.80;;;;;;;14.85;73.49;98584.63;4975589;28;20045;-67
2021/05/11 13:29:16;;;;;;;3.55;1.75;;;;;;;14.82;73.85;98579.78;4975985;28;20031;-67
2021/05/11 13:31:46;;;;;;;2.10;1.40;;;;;;;14.75;72.76;98575.81;4975432;28;20533;-66
2021/05/11 13:34:13;;;;;;;;;;;;;;;15.15;73.34;98565.66;4976180;28;20041;-66
2021/05/11 13:36:40;;;;;;;2.40;1.52;;;;;;;15.52;72.17;98578.41;4975574;28;19981;-66
2021/05/11 13:39:06;;;;;;;3.60;2.00;;;;;;;15.10;71.89;98582.72;4975668;28;20546;-65
2021/05/11 13:41:32;;;;;;;1.92;1.50;;;;;;;15.41;72.20;98574.25;4975251;28;20122;-66
2021/05/11 13:43:57;;;;;;;3.30;1.77;;;;;;;15.52;71.57;98559.50;4975711;28;20031;-66
2021/05/11 13:46:23;;;;;;;2.55;1.70;;;;;;;15.58;71.69;98544.88;4975285;28;20057;-65
2021/05/11 13:48:49;;;;;;;2.10;1.63;;;;;;;15.81;70.09;98550.50;4975429;28;20034;-65
2021/05/11 13:51:20;;;;;;;1.30;1.20;;;;;;;15.25;69.57;98544.75;4975264;28;20066;-66
2021/05/11 13:53:47;;;;;;;3.67;1.60;;;;;;;15.15;69.63;98539.50;4975372;28;20065;-66
2021/05/11 14:02:13;;;;;;;2.38;1.70;;;;;;;15.30;68.84;98531.19;4975018;28;20135;-66
2021/05/11 14:04:38;;;;;;;2.85;1.60;;;;;;;15.41;68.93;98531.06;4974287;28;20042;-66
2021/05/11 14:07:04;;;;;;;3.50;1.40;;;;;;;15.72;69.32;98536.84;4974748;28;20038;-67
2021/05/11 14:09:29;;;;;;;2.75;1.73;;;;;;;15.59;68.61;98537.56;5006524;28;20443;-65
2021/05/11 14:11:55;;;;;;;2.70;1.70;;;;;;;15.40;70.05;98556.44;5013753;28;20057;-65
2021/05/11 14:14:20;;;;;;;2.85;1.70;;;;;;;15.02;69.37;98556.38;4996402;28;20546;-65
2021/05/11 14:16:46;;;;;;;2.00;1.52;;;;;;;14.53;71.28;98554.72;5013905;28;20033;-67
2021/05/11 14:19:11;;;;;;;3.03;1.63;;;;;;;15.12;70.62;98558.94;5014188;28;20353;-67
2021/05/11 14:21:37;;;;;;;2.22;1.55;;;;;;;15.02;71.06;98556.38;5013519;28;20034;-66
2021/05/11 14:24:03;;;;;;;4.03;1.70;;;;;;;15.44;71.49;98565.56;5013523;28;20101;-66
2021/05/11 14:26:29;;;;;;;6.00;1.92;;;;;;;15.52;71.36;98562.22;5013643;28;20393;-65
2021/05/11 14:28:56;;;;;;;2.92;1.67;;;;;;;15.25;71.90;98566.34;5013302;28;20544;-66
2021/05/11 14:31:22;;;;;;;5.03;1.80;;;;;;;15.22;71.94;98582.31;5012946;28;20089;-65
2021/05/11 14:33:47;;;;;;;2.50;1.45;;;;;;;14.48;72.65;98573.63;5013592;28;20026;-65
2021/05/11 14:36:12;;;;;;;2.42;1.80;;;;;;;14.84;72.41;98580.31;5013143;28;20034;-65
2021/05/11 14:38:38;;;;;;;2.38;1.70;;;;;;;15.01;70.51;98570.97;5028953;28;20030;-66
2021/05/11 14:41:04;;;;;;;2.88;1.70;;;;;;;14.76;72.75;98570.16;5013250;28;20033;-65
2021/05/11 14:43:30;;;;;;;3.42;1.77;;;;;;;15.21;70.78;98576.13;5013833;28;20053;-65
2021/05/11 14:45:58;;;;;;;3.55;1.88;;;;;;;14.95;72.59;98585.59;4995671;28;20492;-65
2021/05/11 14:48:24;;;;;;;4.88;1.95;;;;;;;15.38;71.28;98582.94;5013660;28;20096;-65
2021/05/11 14:50:49;;;;;;;3.03;1.90;;;;;;;15.57;70.78;98591.84;4995484;28;20500;-65
2021/05/11 14:53:14;;;;;;;2.00;1.70;;;;;;;15.25;70.82;98593.34;5013309;28;20137;-64
2021/05/11 14:55:40;;;;;;;6.10;1.70;;;;;;;14.84;70.51;98604.59;5013366;28;20042;-64
2021/05/11 14:58:05;;;;;;;3.95;2.20;;;;;;;15.08;71.83;98593.00;5013558;28;20021;-64
2021/05/11 15:00:31;;;;;;;4.80;2.00;;;;;;;15.27;72.17;98591.16;5012924;28;20397;-64
2021/05/11 15:02:56;;;;;;;3.08;2.10;;;;;;;14.97;72.63;98592.31;5013308;28;20026;-64
2021/05/11 15:05:21;;;;;;;7.60;1.90;;;;;;;14.48;74.73;98604.09;5012916;28;20041;-64
2021/05/11 15:07:49;;;;;;;4.35;1.80;;;;;;;14.44;77.10;98606.53;5013061;28;20469;-64
2021/05/11 15:10:14;;;;;;;2.50;2.03;;;;;;;14.22;77.95;98608.88;5012755;28;20105;-64
2021/05/11 15:12:41;;;;;;;1.92;1.73;;;;;;;13.83;79.90;98607.00;5013261;28;20114;-66
2021/05/11 15:15:07;;;;;;;2.92;2.10;;;;;;;13.85;81.04;98599.44;4994235;28;20030;-65
2021/05/11 15:19:58;;;;;;;2.90;1.98;;;;;;;13.72;81.47;98600.06;5013307;28;20022;-65
2021/05/11 15:22:25;;;;;;;2.67;2.00;;;;;;;13.45;82.93;98606.63;5012688;28;20053;-65
2021/05/11 15:24:50;;;;;;;3.13;2.10;;;;;;;13.36;81.86;98600.25;5013072;28;20032;-65
2021/05/11 15:27:16;;;;;;;4.40;1.95;;;;;;;13.38;82.52;98600.78;5012541;28;20038;-65
2021/05/11 15:29:42;;;;;;;3.15;2.08;;;;;;;13.34;83.25;98588.94;5013177;28;20022;-65
2021/05/11 15:32:36;;;;;;;5.18;2.65;;;;;;;13.00;85.03;98589.56;5012688;28;20030;-65
2021/05/11 15:35:03;;;;;;;4.53;2.70;;;;;;;13.26;84.34;98590.28;5012583;28;20054;-65
2021/05/11 15:37:28;;;;;;;2.88;2.17;;;;;;;13.09;84.36;98587.94;5013226;28;20066;-65
2021/05/11 15:39:53;;;;;;;4.22;2.05;;;;;;;13.27;83.27;98599.19;4995639;28;20404;-65
2021/05/11 15:42:19;;;;;;;3.85;2.10;;;;;;;13.61;82.02;98591.22;5012602;28;20053;-65
2021/05/11 15:44:44;;;;;;;4.35;2.30;;;;;;;13.61;80.18;98595.81;5011735;28;20022;-65
2021/05/11 15:47:10;;;;;;;3.50;2.35;;;;;;;13.38;81.48;98592.69;5012387;28;20045;-66
2021/05/11 15:49:35;;;;;;;3.80;2.20;;;;;;;13.46;83.33;98589.41;5013185;28;20030;-66
2021/05/11 15:52:00;;;;;;;4.03;2.10;;;;;;;13.21;83.63;98592.19;5012262;28;20029;-66
2021/05/11 15:54:26;;;;;;;3.55;2.40;;;;;;;13.40;82.76;98598.59;4995131;28;20022;-66
2021/05/11 15:56:51;;;;;;;4.85;2.30;;;;;;;13.64;81.72;98600.66;5012349;28;20104;-65